Terminal Aerodrome Forecast
Issued by NWS

Home | Current Version | Previous Version | Text Only | Print | Product List | Glossary On
Versions: 1 2 3 4 5 6 7 8 9 10 11 12 13 14 15
000
FTUS45 KVEF 260105 AAA
TAFVGT
TAF AMD
KVGT 260105Z 2601/2624 22014G24KT P6SM SCT100 SCT200
     FM260300 26006KT P6SM SCT100
     FM260900 32006KT P6SM FEW100
     FM262200 27010KT P6SM SCT100=

USA.gov is the U.S. government's official web portal to all federal, state and local government web resources and services.